createdAt,value
2023-02-24T00:02:04.582Z,64.61
2023-02-24T00:04:35.803Z,64.43
2023-02-24T00:07:04.743Z,64.57
2023-02-24T00:09:33.643Z,64.38
2023-02-24T00:12:10.916Z,64.26
2023-02-24T00:14:42.577Z,65.30
2023-02-24T00:17:14.776Z,64.92
2023-02-24T00:19:43.620Z,65.16
2023-02-24T00:22:13.086Z,64.95
2023-02-24T00:24:41.071Z,64.82
2023-02-24T00:27:11.971Z,64.67
2023-02-24T00:29:42.161Z,64.18
2023-02-24T00:32:13.538Z,63.96
2023-02-24T00:34:42.003Z,63.90
2023-02-24T00:37:10.175Z,64.12
2023-02-24T00:39:41.962Z,63.94
2023-02-24T00:42:12.065Z,63.63
2023-02-24T00:44:45.662Z,63.84
2023-02-24T00:47:16.963Z,64.13
2023-02-24T00:49:45.593Z,63.73
2023-02-24T00:52:20.940Z,63.91
2023-02-24T00:54:50.260Z,63.78
2023-02-24T00:57:20.550Z,63.63
2023-02-24T00:59:51.449Z,63.82
2023-02-24T01:02:20.527Z,63.58
2023-02-24T01:04:50.121Z,63.86
2023-02-24T01:07:18.166Z,64.25
2023-02-24T01:09:46.443Z,64.06
2023-02-24T01:12:38.536Z,64.11
2023-02-24T01:15:10.214Z,64.06
2023-02-24T01:17:40.854Z,64.30
2023-02-24T01:20:16.803Z,64.35
2023-02-24T01:22:53.220Z,64.21
2023-02-24T01:25:21.882Z,64.34
2023-02-24T01:27:50.801Z,64.40
2023-02-24T01:30:18.969Z,64.49
2023-02-24T01:32:47.599Z,64.13
2023-02-24T01:35:16.633Z,64.11
2023-02-24T01:37:45.858Z,64.20
2023-02-24T01:40:20.686Z,64.59
2023-02-24T01:42:49.753Z,64.50
2023-02-24T01:45:25.181Z,64.53
2023-02-24T01:47:58.614Z,64.19
2023-02-24T01:50:27.958Z,64.54
2023-02-24T01:53:02.000Z,64.72
2023-02-24T01:55:38.037Z,64.53
2023-02-24T01:58:13.106Z,64.83
2023-02-24T02:00:46.933Z,64.73
2023-02-24T02:03:24.508Z,64.59
2023-02-24T02:05:59.049Z,64.64
2023-02-24T02:08:28.635Z,64.47
2023-02-24T02:11:02.664Z,64.82
2023-02-24T02:13:38.140Z,64.63
2023-02-24T02:16:26.113Z,65.18
2023-02-24T02:19:00.968Z,65.25
2023-02-24T02:21:41.220Z,65.65
2023-02-24T02:24:40.168Z,65.56
2023-02-24T02:27:24.567Z,65.73
2023-02-24T02:30:24.290Z,65.82
2023-02-24T02:33:02.128Z,65.83
2023-02-24T02:35:36.980Z,65.87
2023-02-24T02:38:28.016Z,65.82
2023-02-24T02:41:07.491Z,65.59
2023-02-24T02:43:46.592Z,65.38
2023-02-24T02:46:35.024Z,65.47
2023-02-24T02:49:13.366Z,65.49
2023-02-24T02:51:47.086Z,65.56
2023-02-24T02:54:32.729Z,65.75
2023-02-24T02:57:18.209Z,65.35
2023-02-24T02:59:54.680Z,65.32
2023-02-24T03:02:29.789Z,64.87
2023-02-24T03:05:05.134Z,65.06
2023-02-24T03:07:37.846Z,64.85
2023-02-24T03:10:17.821Z,64.25
2023-02-24T03:12:50.830Z,64.29
2023-02-24T03:15:22.604Z,64.33
2023-02-24T03:18:01.747Z,64.07
2023-02-24T03:20:38.138Z,63.64
2023-02-24T03:23:18.504Z,64.02
2023-02-24T03:26:07.950Z,64.13
2023-02-24T03:28:43.520Z,64.07
2023-02-24T03:31:30.749Z,64.65
2023-02-24T03:34:05.655Z,64.49
2023-02-24T03:36:34.271Z,64.03
2023-02-24T03:39:05.513Z,64.23
2023-02-24T03:41:56.404Z,63.87
2023-02-24T03:44:25.104Z,63.79
2023-02-24T03:46:56.037Z,63.72
2023-02-24T03:49:25.565Z,63.87
2023-02-24T03:52:21.725Z,63.49
2023-02-24T03:55:08.789Z,63.63
2023-02-24T03:57:59.926Z,63.11
2023-02-24T04:00:46.775Z,63.49
2023-02-24T04:03:25.872Z,63.30
2023-02-24T04:06:15.833Z,63.66
2023-02-24T04:09:02.194Z,63.41
2023-02-24T04:11:41.358Z,63.23
2023-02-24T04:14:19.466Z,63.50
2023-02-24T04:16:57.404Z,63.66
2023-02-24T04:19:29.738Z,63.52
2023-02-24T04:21:59.553Z,63.50
2023-02-24T04:24:31.086Z,63.62
2023-02-24T04:27:03.662Z,63.68
2023-02-24T04:29:38.851Z,63.85
2023-02-24T04:32:10.535Z,63.80
2023-02-24T04:34:40.423Z,63.93
2023-02-24T04:37:09.101Z,63.94
2023-02-24T04:39:38.594Z,64.01
2023-02-24T04:42:10.966Z,64.03
2023-02-24T04:44:39.063Z,64.26
2023-02-24T04:47:07.468Z,64.45
2023-02-24T04:49:35.587Z,64.54
2023-02-24T04:52:03.558Z,64.31
2023-02-24T04:54:32.950Z,64.50
2023-02-24T04:57:01.238Z,64.71
2023-02-24T04:59:29.510Z,64.48
2023-02-24T05:02:01.699Z,64.45
2023-02-24T05:04:36.229Z,64.42
2023-02-24T05:07:05.010Z,64.65
2023-02-24T05:09:33.265Z,64.36
2023-02-24T05:12:01.338Z,64.57
2023-02-24T05:14:29.282Z,64.48
2023-02-24T05:17:00.586Z,64.39
2023-02-24T05:19:47.987Z,64.37
2023-02-24T05:22:17.805Z,64.39
2023-02-24T05:24:48.059Z,64.63
2023-02-24T05:27:17.480Z,64.12
2023-02-24T05:29:45.912Z,64.13
2023-02-24T05:32:16.936Z,64.24
2023-02-24T05:34:45.326Z,63.77
2023-02-24T05:37:16.800Z,63.52
2023-02-24T05:39:44.960Z,63.92
2023-02-24T05:42:13.231Z,63.93
2023-02-24T05:44:42.017Z,63.68
2023-02-24T05:47:11.038Z,63.47
2023-02-24T05:49:39.581Z,63.72
2023-02-24T05:52:09.754Z,63.88
2023-02-24T05:54:41.268Z,63.30
2023-02-24T05:57:12.578Z,63.33
2023-02-24T05:59:42.113Z,62.92
2023-02-24T06:02:13.726Z,62.79
2023-02-24T06:04:54.274Z,62.90
2023-02-24T06:07:27.746Z,62.66
2023-02-24T06:09:58.690Z,62.65
2023-02-24T06:12:33.989Z,62.70
2023-02-24T06:15:07.902Z,62.78
2023-02-24T06:17:36.251Z,62.75
2023-02-24T06:20:15.749Z,62.43
2023-02-24T06:22:43.913Z,62.51
2023-02-24T06:25:12.220Z,62.78
2023-02-24T06:27:40.353Z,62.74
2023-02-24T06:30:10.527Z,62.89
2023-02-24T06:32:38.884Z,62.80
2023-02-24T06:35:10.923Z,62.83
2023-02-24T06:37:39.648Z,62.77
2023-02-24T06:40:18.030Z,62.29
2023-02-24T06:42:54.174Z,62.35
2023-02-24T06:45:24.458Z,62.19
2023-02-24T06:47:53.125Z,62.17
2023-02-24T06:50:21.992Z,61.74
2023-02-24T06:52:50.780Z,62.27
2023-02-24T06:55:27.742Z,61.34
2023-02-24T06:58:04.465Z,61.61
2023-02-24T07:00:37.425Z,61.14
2023-02-24T07:03:17.307Z,61.04
2023-02-24T07:05:50.812Z,61.22
2023-02-24T07:08:24.642Z,60.98
2023-02-24T07:11:00.130Z,60.97
2023-02-24T07:13:31.564Z,60.70
2023-02-24T07:16:07.508Z,60.57
2023-02-24T07:18:37.121Z,60.00
2023-02-24T07:21:05.615Z,59.70
2023-02-24T07:23:33.790Z,58.94
2023-02-24T07:26:06.917Z,58.38
2023-02-24T07:28:35.046Z,57.48
2023-02-24T07:31:08.529Z,56.40
2023-02-24T07:33:37.440Z,55.75
2023-02-24T07:36:10.641Z,55.25
2023-02-24T07:38:40.051Z,54.38
2023-02-24T07:41:13.003Z,53.86
2023-02-24T07:43:43.934Z,53.87
2023-02-24T07:46:19.277Z,52.82
2023-02-24T07:48:47.325Z,52.80
2023-02-24T07:51:19.482Z,52.09
2023-02-24T07:53:53.908Z,52.36
2023-02-24T07:56:27.193Z,51.99
2023-02-24T07:58:59.676Z,52.07
2023-02-24T08:01:39.481Z,51.78
2023-02-24T08:04:12.563Z,51.79
2023-02-24T08:06:48.032Z,51.76
2023-02-24T08:09:19.357Z,51.84
2023-02-24T08:11:54.706Z,52.30
2023-02-24T08:14:32.916Z,52.43
2023-02-24T08:17:05.513Z,52.53
2023-02-24T08:19:39.719Z,52.57
2023-02-24T08:22:19.897Z,52.69
2023-02-24T08:25:00.749Z,53.17
2023-02-24T08:27:32.184Z,53.42
2023-02-24T08:30:03.038Z,53.10
2023-02-24T08:32:43.885Z,53.90
2023-02-24T08:35:20.566Z,53.75
2023-02-24T08:37:55.495Z,53.90
2023-02-24T08:40:32.989Z,54.25
2023-02-24T08:43:01.168Z,53.66
2023-02-24T08:45:38.649Z,53.74
2023-02-24T08:48:18.363Z,53.90
2023-02-24T08:50:47.031Z,54.09
2023-02-24T08:53:19.429Z,54.25
2023-02-24T08:55:51.948Z,54.18
2023-02-24T08:58:27.268Z,54.44
2023-02-24T09:00:59.383Z,54.45
2023-02-24T09:03:29.711Z,54.66
2023-02-24T09:06:04.698Z,54.69
2023-02-24T09:08:35.135Z,54.68
2023-02-24T09:11:08.151Z,55.03
2023-02-24T09:13:51.868Z,55.10
2023-02-24T09:16:23.664Z,55.66
2023-02-24T09:19:18.420Z,55.71
2023-02-24T09:21:48.940Z,55.93
2023-02-24T09:24:27.247Z,56.51
2023-02-24T09:26:59.326Z,56.59
2023-02-24T09:29:35.305Z,56.84
2023-02-24T09:32:07.017Z,56.57
2023-02-24T09:34:37.712Z,57.17
2023-02-24T09:37:05.870Z,57.30
2023-02-24T09:39:54.732Z,57.55
2023-02-24T09:42:33.524Z,58.01
2023-02-24T09:45:12.965Z,58.05
2023-02-24T09:47:52.096Z,58.28
2023-02-24T09:50:46.913Z,58.66
2023-02-24T09:53:17.670Z,58.83
2023-02-24T09:56:16.194Z,59.04
2023-02-24T09:59:26.557Z,58.69
2023-02-24T10:02:31.395Z,58.68
2023-02-24T10:05:27.539Z,59.07
2023-02-24T10:07:57.569Z,59.11
2023-02-24T10:10:36.063Z,59.13
2023-02-24T10:13:34.152Z,59.17
2023-02-24T10:16:07.335Z,58.92
2023-02-24T10:19:01.488Z,58.64
2023-02-24T10:22:00.551Z,58.68
2023-02-24T10:24:35.884Z,58.63
2023-02-24T10:27:17.558Z,58.61
2023-02-24T10:29:55.692Z,59.10
2023-02-24T10:32:37.898Z,58.95
2023-02-24T10:35:09.636Z,58.83
2023-02-24T10:37:37.711Z,58.97
2023-02-24T10:40:10.445Z,59.22
2023-02-24T10:42:48.866Z,58.92
2023-02-24T10:45:24.763Z,59.30
2023-02-24T10:47:57.426Z,59.02
2023-02-24T10:50:30.372Z,59.34
2023-02-24T10:53:07.804Z,58.77
2023-02-24T10:55:43.154Z,58.87
2023-02-24T10:58:28.314Z,58.87
2023-02-24T11:01:07.621Z,58.83
2023-02-24T11:04:00.919Z,58.96
2023-02-24T11:06:41.320Z,59.05
2023-02-24T11:09:19.553Z,58.76
2023-02-24T11:12:07.519Z,58.95
2023-02-24T11:15:07.758Z,58.77
2023-02-24T11:17:37.880Z,59.24
2023-02-24T11:20:15.783Z,59.71
2023-02-24T11:22:48.149Z,59.65
2023-02-24T11:25:27.323Z,59.61
2023-02-24T11:27:57.093Z,59.59
2023-02-24T11:30:46.340Z,58.55
2023-02-24T11:33:42.692Z,57.98
2023-02-24T11:36:41.380Z,57.11
2023-02-24T11:39:21.519Z,53.37
2023-02-24T11:41:55.690Z,52.26
2023-02-24T11:44:34.692Z,52.10
2023-02-24T11:47:07.976Z,49.04
2023-02-24T11:50:06.672Z,41.71
2023-02-24T11:52:40.418Z,42.20
2023-02-24T11:55:23.395Z,40.78
2023-02-24T11:57:54.961Z,38.59
2023-02-24T12:00:28.066Z,38.08
2023-02-24T12:03:13.685Z,38.20
2023-02-24T12:05:49.033Z,38.93
2023-02-24T12:08:33.493Z,38.89
2023-02-24T12:11:11.730Z,38.74
2023-02-24T12:13:48.676Z,38.56
2023-02-24T12:16:25.953Z,37.93
2023-02-24T12:19:06.663Z,37.94
2023-02-24T12:21:42.201Z,38.08
2023-02-24T12:24:14.692Z,38.46
2023-02-24T12:26:53.300Z,39.14
2023-02-24T12:29:42.147Z,40.11
2023-02-24T12:32:43.019Z,41.20
2023-02-24T12:35:32.372Z,42.01
2023-02-24T12:38:03.836Z,43.30
2023-02-24T12:40:47.474Z,43.18
2023-02-24T12:43:38.982Z,42.75
2023-02-24T12:46:20.292Z,42.25
2023-02-24T12:49:13.429Z,42.52
2023-02-24T12:51:55.004Z,43.46
2023-02-24T12:54:51.361Z,44.23
2023-02-24T12:57:30.574Z,43.57
2023-02-24T13:00:07.864Z,43.94
2023-02-24T13:03:01.958Z,44.29
2023-02-24T13:05:39.336Z,44.64
2023-02-24T13:08:40.883Z,43.40
2023-02-24T13:11:30.152Z,42.25
2023-02-24T13:14:26.436Z,42.28
2023-02-24T13:17:25.396Z,40.98
2023-02-24T13:19:55.608Z,39.24
2023-02-24T13:22:30.659Z,38.08
2023-02-24T13:25:21.680Z,36.62
2023-02-24T13:28:02.333Z,36.74
2023-02-24T13:30:39.333Z,36.06
2023-02-24T13:33:24.175Z,36.18
2023-02-24T13:36:07.065Z,36.57
2023-02-24T13:38:39.053Z,37.26
2023-02-24T13:41:25.135Z,37.77
2023-02-24T13:44:24.151Z,38.49
2023-02-24T13:47:13.929Z,39.23
2023-02-24T13:50:19.760Z,40.00
2023-02-24T13:53:17.926Z,41.17
2023-02-24T13:56:11.123Z,41.78
2023-02-24T13:58:52.724Z,42.78
2023-02-24T14:01:22.680Z,43.78
2023-02-24T14:04:19.067Z,44.42
2023-02-24T14:06:52.269Z,44.80
2023-02-24T14:09:30.858Z,45.33
2023-02-24T14:12:07.399Z,46.01
2023-02-24T14:14:35.728Z,46.75
2023-02-24T14:17:03.702Z,47.16
2023-02-24T14:19:31.710Z,47.59
2023-02-24T14:22:00.354Z,48.11
2023-02-24T14:24:29.438Z,48.38
2023-02-24T14:26:59.434Z,48.56
2023-02-24T14:29:32.253Z,49.10
2023-02-24T14:32:00.802Z,49.59
2023-02-24T14:34:31.352Z,49.86
2023-02-24T14:37:02.846Z,49.85
2023-02-24T14:39:34.441Z,50.38
2023-02-24T14:42:09.811Z,50.59
2023-02-24T14:44:50.235Z,51.03
2023-02-24T14:47:21.015Z,51.37
2023-02-24T14:50:02.274Z,51.50
2023-02-24T14:52:41.822Z,51.84
2023-02-24T14:55:18.707Z,51.81
2023-02-24T14:58:04.219Z,52.11
2023-02-24T15:00:43.929Z,52.15
2023-02-24T15:03:25.129Z,52.56
2023-02-24T15:05:56.783Z,52.69
2023-02-24T15:08:31.007Z,52.94
2023-02-24T15:10:59.343Z,53.36
2023-02-24T15:13:38.818Z,53.30
2023-02-24T15:16:36.648Z,53.44
2023-02-24T15:19:05.858Z,53.46
2023-02-24T15:21:40.598Z,53.66
2023-02-24T15:24:25.355Z,53.66
2023-02-24T15:27:00.143Z,53.98
2023-02-24T15:29:31.741Z,54.23
2023-02-24T15:32:04.319Z,54.36
2023-02-24T15:34:36.638Z,54.43
2023-02-24T15:37:22.041Z,54.64
2023-02-24T15:39:54.647Z,54.64
2023-02-24T15:42:32.598Z,54.62
2023-02-24T15:45:34.714Z,54.75
2023-02-24T15:48:17.941Z,55.00
2023-02-24T15:50:45.907Z,55.38
2023-02-24T15:53:14.290Z,55.55
2023-02-24T15:55:43.692Z,55.81
2023-02-24T15:58:18.171Z,55.89
2023-02-24T16:00:46.818Z,55.91
2023-02-24T16:03:14.863Z,55.89
2023-02-24T16:05:42.949Z,55.99
2023-02-24T16:08:18.388Z,56.72
2023-02-24T16:10:47.388Z,56.36
2023-02-24T16:13:22.734Z,56.71
2023-02-24T16:15:51.572Z,57.21
2023-02-24T16:18:22.792Z,57.67
2023-02-24T16:20:55.338Z,58.30
2023-02-24T16:23:25.802Z,58.99
2023-02-24T16:25:56.925Z,59.84
2023-02-24T16:28:26.501Z,61.05
2023-02-24T16:30:54.705Z,61.22
2023-02-24T16:33:23.864Z,61.02
2023-02-24T16:35:55.352Z,60.62
2023-02-24T16:38:26.852Z,60.48
2023-02-24T16:40:55.993Z,60.60
2023-02-24T16:43:24.916Z,60.89
2023-02-24T16:45:55.707Z,60.70
2023-02-24T16:48:26.537Z,60.85
2023-02-24T16:50:54.744Z,60.86
2023-02-24T16:53:24.350Z,61.42
2023-02-24T16:55:52.844Z,62.11
2023-02-24T16:58:20.887Z,62.23
2023-02-24T17:00:52.237Z,62.54
2023-02-24T17:03:26.068Z,63.17
2023-02-24T17:05:55.351Z,62.58
2023-02-24T17:08:23.924Z,62.38
2023-02-24T17:10:52.952Z,62.04
2023-02-24T17:13:22.472Z,62.14
2023-02-24T17:15:57.004Z,61.85
2023-02-24T17:18:26.582Z,62.10
2023-02-24T17:20:55.057Z,61.79
2023-02-24T17:23:23.944Z,61.74
2023-02-24T17:25:55.026Z,61.68
2023-02-24T17:28:23.569Z,61.14
2023-02-24T17:30:52.089Z,62.12
2023-02-24T17:33:20.415Z,62.02
2023-02-24T17:35:48.487Z,61.82
2023-02-24T17:38:19.141Z,61.76
2023-02-24T17:40:47.496Z,61.61
2023-02-24T17:43:15.481Z,61.56
2023-02-24T17:45:45.487Z,61.56
2023-02-24T17:48:14.992Z,61.44
2023-02-24T17:50:45.206Z,61.63
2023-02-24T17:53:13.502Z,61.90
2023-02-24T17:55:55.835Z,61.83
2023-02-24T17:58:27.983Z,61.94
2023-02-24T18:00:56.236Z,61.82
2023-02-24T18:03:24.787Z,62.33
2023-02-24T18:06:07.550Z,62.42
2023-02-24T18:08:37.519Z,62.30
2023-02-24T18:11:07.983Z,62.53
2023-02-24T18:13:36.253Z,62.55
2023-02-24T18:16:13.133Z,62.76
2023-02-24T18:18:41.931Z,62.50
2023-02-24T18:21:10.111Z,62.64
2023-02-24T18:23:40.550Z,62.53
2023-02-24T18:26:10.946Z,62.64
2023-02-24T18:28:39.937Z,62.69
2023-02-24T18:31:20.709Z,62.60
2023-02-24T18:33:49.710Z,62.41
2023-02-24T18:36:18.654Z,62.17
2023-02-24T18:38:47.130Z,62.32
2023-02-24T18:41:18.607Z,62.18
2023-02-24T18:43:51.218Z,62.08
2023-02-24T18:46:20.364Z,62.35
2023-02-24T18:48:50.552Z,62.00
2023-02-24T18:51:22.099Z,61.90
2023-02-24T18:53:52.574Z,62.09
2023-02-24T18:56:23.599Z,61.66
2023-02-24T18:58:55.701Z,61.89
2023-02-24T19:01:28.357Z,62.04
2023-02-24T19:03:57.384Z,62.32
2023-02-24T19:06:28.576Z,62.26
2023-02-24T19:08:59.784Z,62.23
2023-02-24T19:11:28.456Z,62.41
2023-02-24T19:13:58.394Z,62.25
2023-02-24T19:16:27.392Z,62.32
2023-02-24T19:18:57.307Z,62.17
2023-02-24T19:21:26.861Z,62.19
2023-02-24T19:23:55.073Z,62.74
2023-02-24T19:26:26.606Z,62.35
2023-02-24T19:28:55.217Z,62.20
2023-02-24T19:31:26.530Z,62.39
2023-02-24T19:33:56.283Z,62.40
2023-02-24T19:36:24.994Z,62.25
2023-02-24T19:38:54.161Z,62.22
2023-02-24T19:41:22.737Z,62.18
2023-02-24T19:43:50.782Z,62.42
2023-02-24T19:46:19.375Z,62.74
2023-02-24T19:48:48.583Z,62.62
2023-02-24T19:51:19.945Z,62.69
2023-02-24T19:53:52.732Z,62.77
2023-02-24T19:56:25.990Z,62.67
2023-02-24T19:58:56.457Z,62.98
2023-02-24T20:01:26.120Z,63.08
2023-02-24T20:03:56.736Z,62.80
2023-02-24T20:06:37.228Z,63.00
2023-02-24T20:09:08.268Z,62.96
2023-02-24T20:11:38.635Z,62.79
2023-02-24T20:14:08.696Z,63.08
2023-02-24T20:16:38.697Z,63.36
2023-02-24T20:19:09.589Z,63.19
2023-02-24T20:21:41.124Z,63.30
2023-02-24T20:24:13.790Z,63.39
2023-02-24T20:26:47.174Z,63.33
2023-02-24T20:29:18.106Z,63.44
2023-02-24T20:31:47.116Z,63.33
2023-02-24T20:34:16.962Z,63.55
2023-02-24T20:36:45.674Z,63.87
2023-02-24T20:39:14.512Z,63.45
2023-02-24T20:41:43.118Z,63.53
2023-02-24T20:44:11.812Z,63.80
2023-02-24T20:46:39.994Z,63.84
2023-02-24T20:49:11.064Z,64.04
2023-02-24T20:51:39.101Z,63.97
2023-02-24T20:54:09.622Z,64.09
2023-02-24T20:56:39.861Z,63.93
2023-02-24T20:59:20.000Z,63.69
2023-02-24T21:01:49.082Z,63.75
2023-02-24T21:04:20.277Z,63.64
2023-02-24T21:06:49.008Z,63.75
2023-02-24T21:09:17.068Z,63.92
2023-02-24T21:11:45.107Z,63.19
2023-02-24T21:14:17.667Z,63.45
2023-02-24T21:16:49.822Z,63.38
2023-02-24T21:19:20.466Z,63.17
2023-02-24T21:21:48.521Z,63.16
2023-02-24T21:24:16.766Z,63.01
2023-02-24T21:26:44.880Z,63.06
2023-02-24T21:29:12.951Z,63.18
2023-02-24T21:31:41.553Z,63.42
2023-02-24T21:34:12.372Z,63.46
2023-02-24T21:36:40.312Z,63.34
2023-02-24T21:39:08.781Z,63.08
2023-02-24T21:41:37.001Z,63.33
2023-02-24T21:44:05.356Z,63.06
2023-02-24T21:46:33.611Z,63.40
2023-02-24T21:49:02.022Z,63.11
2023-02-24T21:51:30.203Z,63.18
2023-02-24T21:53:58.575Z,63.45
2023-02-24T21:56:29.480Z,63.30
2023-02-24T21:59:00.642Z,63.11
2023-02-24T22:01:38.337Z,63.30
2023-02-24T22:04:09.675Z,63.29
2023-02-24T22:06:39.108Z,63.37
2023-02-24T22:09:08.713Z,63.39
2023-02-24T22:11:39.440Z,63.35
2023-02-24T22:14:09.608Z,63.34
2023-02-24T22:16:37.727Z,63.29
2023-02-24T22:19:06.446Z,63.33
2023-02-24T22:21:34.708Z,63.20
2023-02-24T22:24:03.919Z,63.37
2023-02-24T22:26:32.257Z,63.18
2023-02-24T22:29:01.628Z,63.28
2023-02-24T22:31:32.227Z,63.53
2023-02-24T22:34:01.018Z,63.42
2023-02-24T22:36:34.527Z,63.28
2023-02-24T22:39:03.086Z,63.35
2023-02-24T22:41:34.224Z,63.09
2023-02-24T22:44:04.833Z,63.19
2023-02-24T22:46:35.839Z,63.19
2023-02-24T22:49:05.154Z,63.12
2023-02-24T22:51:33.273Z,63.54
2023-02-24T22:54:01.671Z,63.53
2023-02-24T22:56:30.438Z,64.18
2023-02-24T22:58:59.329Z,64.73
2023-02-24T23:01:31.207Z,65.27
2023-02-24T23:04:01.370Z,66.02
2023-02-24T23:06:30.863Z,66.67
2023-02-24T23:09:00.292Z,67.02
2023-02-24T23:11:34.274Z,67.28
2023-02-24T23:14:06.195Z,67.14
2023-02-24T23:16:35.362Z,67.95
2023-02-24T23:19:19.644Z,68.34
2023-02-24T23:21:50.212Z,68.71
2023-02-24T23:24:20.479Z,69.00
2023-02-24T23:26:54.231Z,69.24
2023-02-24T23:29:24.116Z,69.12
2023-02-24T23:31:53.014Z,69.27
2023-02-24T23:34:21.284Z,69.66
2023-02-24T23:36:49.662Z,69.83
2023-02-24T23:39:23.219Z,69.67
2023-02-24T23:41:56.886Z,70.11
2023-02-24T23:44:25.885Z,69.96
2023-02-24T23:46:55.080Z,69.60
2023-02-24T23:49:23.425Z,69.53
2023-02-24T23:51:52.542Z,69.70
2023-02-24T23:54:20.608Z,70.11
2023-02-24T23:56:49.094Z,70.33
2023-02-24T23:59:17.376Z,70.24
